Time;durP1;ratioP1;P1;durP2;ratioP2;P2;SDS_P1;SDS_P2;PMS_P1;PMS_P2;Temp;Humidity;BMP_temperature;BMP_pressure;BME280_temperature;BME280_humidity;BME280_pressure;Samples;Min_cycle;Max_cycle;Signal;HPM_P1;HPM_P2
2022/07/10 00:01:33;;;;;;;6.53;6.05;;;18.00;99.90;;;18.97;84.63;98547.06;5138319;28;20673;-59
2022/07/10 00:04:06;;;;;;;6.45;5.95;;;18.00;99.90;;;18.86;85.37;98552.75;5139636;28;20209;-58
2022/07/10 00:06:41;;;;;;;5.93;5.53;;;17.90;99.90;;;18.87;85.55;98549.34;5143136;28;20208;-59
2022/07/10 00:09:14;;;;;;;6.20;5.80;;;18.00;99.90;;;18.86;85.68;98546.69;5143287;28;20278;-58
2022/07/10 00:11:47;;;;;;;5.95;5.55;;;17.90;99.90;;;18.86;85.19;98542.41;5140971;28;20290;-59
2022/07/10 00:14:22;;;;;;;6.30;5.90;;;17.90;99.90;;;18.83;84.83;98534.53;5139979;28;20212;-58
2022/07/10 00:16:55;;;;;;;6.35;5.85;;;17.90;99.90;;;18.85;85.30;98537.16;5140811;28;20203;-57
2022/07/10 00:19:28;;;;;;;6.03;5.50;;;17.90;99.90;;;18.82;84.57;98535.31;5143214;28;20203;-58
2022/07/10 00:22:01;;;;;;;6.38;5.95;;;17.90;99.90;;;18.82;84.50;98534.44;5143131;28;20216;-59
2022/07/10 00:24:34;;;;;;;6.38;5.88;;;17.90;99.90;;;18.80;84.29;98534.41;5141482;28;20604;-59
2022/07/10 00:27:07;;;;;;;6.30;5.80;;;17.90;99.90;;;18.78;84.32;98536.06;5140260;28;20220;-59
2022/07/10 00:29:42;;;;;;;5.88;5.38;;;17.80;99.90;;;18.76;84.54;98532.53;5139848;28;20234;-58
2022/07/10 00:32:15;;;;;;;6.50;6.00;;;17.80;99.90;;;18.74;85.03;98529.00;5142109;28;20233;-58
2022/07/10 00:34:48;;;;;;;7.07;6.15;;;17.80;99.90;;;18.76;84.73;98536.84;5141733;28;20279;-57
2022/07/10 00:37:21;;;;;;;6.68;6.18;;;17.80;99.90;;;18.73;84.94;98529.78;5140500;28;20622;-59
2022/07/10 00:39:55;;;;;;;6.22;5.63;;;17.80;99.90;;;18.80;83.99;98534.41;5140798;28;20239;-57
2022/07/10 00:42:28;;;;;;;6.70;6.20;;;17.70;99.90;;;18.79;84.14;98532.63;5138826;28;20203;-59
2022/07/10 00:45:03;;;;;;;6.72;6.13;;;17.70;99.90;;;18.74;85.06;98533.28;5141124;28;20204;-59
2022/07/10 00:47:36;;;;;;;6.40;6.00;;;17.70;99.90;;;18.63;85.34;98530.31;5139151;28;20630;-59
2022/07/10 00:50:11;;;;;;;6.55;6.05;;;17.60;99.90;;;18.59;85.89;98533.59;5141779;28;20200;-58
2022/07/10 00:52:44;;;;;;;6.75;6.22;;;17.70;99.90;;;18.46;86.34;98530.56;5142491;28;20734;-59
2022/07/10 00:55:17;;;;;;;6.45;6.00;;;17.60;99.90;;;18.48;86.36;98532.31;5143338;28;20200;-59
2022/07/10 00:57:51;;;;;;;6.82;6.32;;;17.60;99.90;;;18.45;86.60;98531.38;5141003;28;20196;-59
2022/07/10 01:00:26;;;;;;;7.00;6.50;;;17.60;99.90;;;18.31;86.15;98522.22;5141074;28;20227;-59
2022/07/10 01:02:59;;;;;;;7.07;6.50;;;17.40;99.90;;;18.33;87.18;98527.47;5142764;28;20638;-58
2022/07/10 01:05:33;;;;;;;7.25;6.65;;;17.40;99.90;;;18.36;86.86;98515.50;5143138;28;20282;-58
2022/07/10 01:08:06;;;;;;;7.00;6.43;;;17.50;99.90;;;18.34;86.90;98516.28;5142052;28;20735;-59
2022/07/10 01:10:40;;;;;;;6.70;6.20;;;17.50;99.90;;;18.30;86.76;98517.00;5142015;28;20279;-59
2022/07/10 01:13:13;;;;;;;6.72;6.22;;;17.40;99.90;;;18.32;86.44;98516.25;5138053;28;20259;-59
2022/07/10 01:15:48;;;;;;;6.60;6.10;;;17.40;99.90;;;18.30;86.04;98515.28;5139609;28;20612;-56
2022/07/10 01:18:22;;;;;;;7.53;6.93;;;17.40;99.90;;;18.24;86.20;98515.94;5139907;28;20196;-58
2022/07/10 01:20:57;;;;;;;7.30;6.70;;;17.30;99.90;;;18.19;86.39;98511.41;5139198;28;20661;-58
2022/07/10 01:23:30;;;;;;;6.53;5.95;;;17.30;99.90;;;18.17;86.04;98506.19;5137255;28;20207;-57
2022/07/10 01:26:04;;;;;;;6.90;6.40;;;17.30;99.90;;;18.17;86.51;98508.78;5140447;28;20228;-59
2022/07/10 01:28:37;;;;;;;6.88;6.20;;;17.20;99.90;;;18.13;85.84;98511.19;5140530;28;20203;-58
2022/07/10 01:31:11;;;;;;;7.55;7.05;;;17.20;99.90;;;18.12;86.23;98507.72;5141343;28;20224;-58
2022/07/10 01:33:44;;;;;;;7.03;6.53;;;17.20;99.90;;;18.07;86.59;98508.38;5142899;28;20224;-57
2022/07/10 01:36:19;;;;;;;7.53;6.85;;;17.20;99.90;;;18.00;87.26;98508.16;5136669;28;20199;-58
2022/07/10 01:38:52;;;;;;;7.00;6.50;;;17.10;99.90;;;18.00;88.63;98508.16;5142947;28;20211;-59
2022/07/10 01:41:26;;;;;;;7.18;6.55;;;17.20;99.90;;;17.96;87.35;98505.38;5139069;28;20236;-58
2022/07/10 01:43:59;;;;;;;7.30;6.80;;;17.10;99.90;;;17.94;87.24;98507.00;5139653;28;20254;-59
2022/07/10 01:46:33;;;;;;;7.15;6.47;;;17.10;99.90;;;17.94;87.05;98505.34;5137853;28;20216;-58
2022/07/10 01:49:06;;;;;;;6.85;6.25;;;17.00;99.90;;;17.88;87.08;98510.25;5140916;28;20250;-59
2022/07/10 01:51:40;;;;;;;7.18;6.68;;;16.90;99.90;;;17.85;87.40;98504.94;5134632;28;20303;-58
2022/07/10 01:54:13;;;;;;;6.80;6.30;;;16.90;99.90;;;17.81;87.55;98505.66;5141102;28;20199;-59
2022/07/10 01:56:47;;;;;;;8.15;7.45;;;16.90;99.90;;;17.80;87.25;98501.34;5142549;28;20201;-55
2022/07/10 01:59:20;;;;;;;7.10;6.55;;;17.00;99.90;;;17.79;86.98;98509.88;5140640;28;20634;-59
2022/07/10 02:01:53;;;;;;;7.00;6.40;;;16.90;99.90;;;17.76;86.87;98507.16;5138877;28;20224;-58
2022/07/10 02:04:44;;;;;;;7.60;6.88;;;16.90;99.90;;;17.74;86.95;98512.28;5139425;28;20262;-59
2022/07/10 02:07:22;;;;;;;7.57;6.97;;;16.90;99.90;;;17.70;88.17;98512.09;5141790;28;20260;-58
2022/07/10 02:09:55;;;;;;;7.47;6.90;;;16.80;99.90;;;17.64;88.86;98517.91;5140518;28;20203;-57
2022/07/10 02:12:28;;;;;;;7.20;6.60;;;16.80;99.90;;;17.65;88.24;98516.19;5142228;28;20259;-54
2022/07/10 02:15:01;;;;;;;7.40;6.80;;;16.80;99.90;;;17.63;88.24;98515.28;5139136;28;20251;-58
2022/07/10 02:17:36;;;;;;;8.13;7.25;;;16.80;99.90;;;17.66;88.60;98520.56;5144334;28;20723;-55
2022/07/10 02:20:11;;;;;;;7.60;6.97;;;16.90;99.90;;;17.74;86.97;98511.38;5142353;28;20195;-59
2022/07/10 02:22:45;;;;;;;6.90;6.40;;;16.80;99.90;;;17.67;86.77;98514.56;5138912;28;20210;-56
2022/07/10 02:25:18;;;;;;;6.93;6.43;;;16.60;99.90;;;17.64;87.56;98515.31;5144176;28;20219;-56
2022/07/10 02:27:52;;;;;;;6.35;5.93;;;16.70;99.90;;;17.67;86.69;98510.25;5142727;28;20232;-58
2022/07/10 02:30:25;;;;;;;6.50;6.00;;;16.70;99.90;;;17.61;87.95;98515.19;5139773;28;20227;-56
2022/07/10 02:32:58;;;;;;;6.38;5.88;;;16.70;99.90;;;17.58;87.63;98521.94;5141403;28;20200;-60
2022/07/10 02:35:31;;;;;;;6.78;6.28;;;16.70;99.90;;;17.55;87.53;98523.59;5144722;28;20262;-60
2022/07/10 02:38:05;;;;;;;7.13;6.53;;;16.70;99.90;;;17.48;88.08;98524.19;5131441;28;20239;-59
2022/07/10 02:40:39;;;;;;;6.63;6.22;;;16.70;99.90;;;17.51;87.39;98524.28;5137581;28;21576;-60
2022/07/10 02:43:12;;;;;;;6.40;6.00;;;16.60;99.90;;;17.52;86.41;98515.72;5135362;28;20252;-58
2022/07/10 02:45:45;;;;;;;6.28;5.70;;;16.60;99.90;;;17.52;85.76;98520.00;5136801;28;20201;-58
2022/07/10 02:48:19;;;;;;;5.80;5.40;;;16.60;99.90;;;17.46;86.22;98523.22;5140324;28;20223;-59
2022/07/10 02:50:52;;;;;;;6.72;6.22;;;16.60;99.90;;;17.42;87.11;98523.03;5138521;28;20219;-59
2022/07/10 02:53:27;;;;;;;6.72;6.30;;;16.60;99.90;;;17.41;86.75;98526.44;5135746;28;20699;-59
2022/07/10 02:56:00;;;;;;;5.90;5.50;;;16.50;99.90;;;17.47;86.12;98524.97;5133495;28;20227;-59
2022/07/10 02:58:33;;;;;;;7.13;6.53;;;16.60;99.90;;;17.45;86.62;98520.56;5134087;28;20254;-58
2022/07/10 03:01:07;;;;;;;6.47;6.00;;;16.60;99.90;;;17.43;87.13;98525.69;5140070;28;20224;-59
2022/07/10 03:03:41;;;;;;;6.53;6.03;;;16.50;99.90;;;17.43;86.91;98520.50;5138235;28;20266;-61
2022/07/10 03:06:14;;;;;;;6.93;6.40;;;16.60;99.90;;;17.45;86.77;98513.69;5135302;28;20204;-60
2022/07/10 03:08:48;;;;;;;7.18;6.57;;;16.60;99.90;;;17.40;86.99;98515.22;5137371;28;20255;-58
2022/07/10 03:11:21;;;;;;;7.43;6.80;;;16.50;99.90;;;17.33;87.30;98514.06;5135155;28;20703;-59
2022/07/10 03:13:54;;;;;;;6.80;6.30;;;16.50;99.90;;;17.33;87.07;98526.13;5135355;28;20204;-58
2022/07/10 03:16:28;;;;;;;7.05;6.47;;;16.40;99.90;;;17.32;87.76;98521.78;5131450;28;20208;-58
2022/07/10 03:19:01;;;;;;;6.70;6.20;;;16.40;99.90;;;17.34;86.91;98523.59;5136245;28;20797;-60
2022/07/10 03:21:34;;;;;;;6.47;6.03;;;16.40;99.90;;;17.30;86.59;98528.56;5133928;28;20228;-59
2022/07/10 03:24:08;;;;;;;7.07;6.55;;;16.40;99.90;;;17.27;86.69;98524.16;5138244;28;20263;-58
2022/07/10 03:26:42;;;;;;;6.68;6.07;;;16.40;99.90;;;17.24;87.01;98523.16;5140511;28;20228;-60
2022/07/10 03:29:15;;;;;;;7.05;6.45;;;16.40;99.90;;;17.25;86.47;98524.91;5136612;28;20201;-56
2022/07/10 03:31:54;;;;;;;7.05;6.45;;;16.40;99.90;;;17.15;85.93;98527.94;5135701;28;20221;-60
2022/07/10 03:34:27;;;;;;;7.30;6.70;;;16.30;99.90;;;17.14;86.20;98527.06;5136119;28;20203;-60
2022/07/10 03:37:00;;;;;;;6.70;6.20;;;16.20;99.90;;;17.11;86.23;98533.00;5136116;28;20235;-60
2022/07/10 03:39:35;;;;;;;7.20;6.70;;;16.20;99.90;;;17.10;86.60;98535.50;5134746;28;20224;-57
2022/07/10 03:42:08;;;;;;;7.35;6.78;;;16.20;99.90;;;17.03;87.18;98529.19;5139261;28;20273;-58
2022/07/10 03:44:41;;;;;;;7.65;7.05;;;16.20;99.90;;;16.99;87.86;98529.88;5135425;28;20653;-59
2022/07/10 03:47:14;;;;;;;6.10;5.68;;;16.20;99.90;;;16.97;86.85;98523.78;5137570;28;20243;-58
2022/07/10 03:49:47;;;;;;;7.10;6.60;;;16.10;99.90;;;16.96;86.71;98523.69;5138620;28;20204;-59
2022/07/10 03:52:20;;;;;;;6.93;6.38;;;16.10;99.90;;;16.95;87.48;98517.66;5135963;28;20228;-59
2022/07/10 03:54:56;;;;;;;7.35;6.75;;;16.10;99.90;;;16.93;87.82;98520.97;5131421;28;20238;-60
2022/07/10 04:00:22;;;;;;;7.10;6.50;;;16.10;99.90;;;16.97;86.42;98525.44;5134328;28;20223;-59
2022/07/10 04:02:57;;;;;;;7.05;6.53;;;16.00;99.90;;;16.92;86.85;98524.41;5134502;28;20199;-55
2022/07/10 04:05:31;;;;;;;6.97;6.47;;;16.10;99.90;;;16.89;87.07;98519.97;5138392;28;20227;-60
2022/07/10 04:08:05;;;;;;;6.90;6.40;;;16.00;99.90;;;16.87;87.21;98516.44;5135822;28;20223;-58
2022/07/10 04:10:40;;;;;;;7.38;6.63;;;16.00;99.90;;;16.94;87.27;98521.06;5131000;28;20273;-57
2022/07/10 04:13:13;;;;;;;7.68;7.07;;;16.10;99.90;;;16.99;86.97;98516.94;5134776;28;20200;-58
2022/07/10 04:15:46;;;;;;;7.75;7.25;;;16.10;99.90;;;17.01;87.49;98520.50;5133389;28;20956;-58
2022/07/10 04:18:19;;;;;;;9.10;7.90;;;16.10;99.90;;;17.02;88.08;98511.91;5138569;28;20624;-57
2022/07/10 04:20:53;;;;;;;7.90;7.30;;;16.10;99.90;;;17.08;87.69;98517.38;5136825;28;20247;-60
2022/07/10 04:23:26;;;;;;;8.48;7.53;;;16.10;99.90;;;17.10;87.61;98515.69;5137779;28;20680;-57
2022/07/10 04:26:00;;;;;;;8.45;7.75;;;16.10;99.90;;;17.06;88.55;98526.75;5137310;28;20196;-57
2022/07/10 04:28:33;;;;;;;8.18;7.43;;;16.20;99.90;;;17.06;88.54;98523.28;5136450;28;20287;-58
2022/07/10 04:31:06;;;;;;;8.05;7.45;;;16.20;99.90;;;17.15;87.73;98527.94;5135676;28;20758;-58
2022/07/10 04:33:40;;;;;;;8.60;7.82;;;16.30;99.90;;;17.24;87.35;98528.31;5131983;28;20205;-60
2022/07/10 04:36:13;;;;;;;8.52;7.82;;;16.30;99.90;;;17.25;86.89;98538.72;5142479;28;20200;-56
2022/07/10 04:38:46;;;;;;;7.63;7.07;;;16.30;99.90;;;17.34;86.19;98530.47;5141160;28;20196;-58
2022/07/10 04:41:20;;;;;;;8.45;7.70;;;16.30;99.90;;;17.38;86.44;98542.69;5141490;28;20641;-60
2022/07/10 04:43:53;;;;;;;8.02;7.43;;;16.30;99.90;;;17.40;86.69;98546.25;5140485;28;20257;-59
2022/07/10 04:46:26;;;;;;;7.90;7.28;;;16.40;99.90;;;17.49;86.01;98546.59;5138158;28;20203;-56
2022/07/10 04:49:00;;;;;;;7.97;7.28;;;16.50;99.90;;;17.60;85.77;98540.97;5137886;28;20228;-58
2022/07/10 04:51:33;;;;;;;7.53;6.93;;;16.60;99.90;;;17.87;84.81;98528.31;5139416;28;20223;-60
2022/07/10 04:54:06;;;;;;;7.40;6.90;;;16.80;99.90;;;17.94;83.77;98526.03;5142024;28;20719;-59
2022/07/10 04:56:41;;;;;;;6.90;6.40;;;16.90;99.90;;;18.08;82.74;98529.13;5137715;28;20520;-58
2022/07/10 04:59:14;;;;;;;6.60;6.03;;;17.00;99.90;;;18.31;81.62;98526.53;5141411;28;20195;-59
2022/07/10 05:01:47;;;;;;;6.10;5.60;;;17.20;99.90;;;18.39;80.51;98520.81;5138692;28;20231;-60
2022/07/10 05:04:21;;;;;;;6.47;5.97;;;17.20;99.90;;;18.46;79.39;98527.09;5140264;28;20243;-60
2022/07/10 05:06:54;;;;;;;5.13;4.72;;;17.40;99.90;;;18.43;77.88;98527.88;5139391;28;20200;-60
2022/07/10 05:09:27;;;;;;;4.35;3.90;;;17.40;99.90;;;18.50;74.86;98534.16;5139732;28;20224;-58
2022/07/10 05:12:02;;;;;;;4.03;3.67;;;17.50;99.90;;;18.65;69.84;98520.88;5137209;28;20275;-60
2022/07/10 05:14:35;;;;;;;3.50;3.20;;;17.80;99.90;;;18.95;68.45;98528.88;5134950;28;20254;-58
2022/07/10 05:17:08;;;;;;;3.55;3.20;;;18.10;99.90;;;19.59;66.52;98522.38;5141664;28;20621;-60
2022/07/10 05:19:41;;;;;;;4.90;2.92;;;18.70;99.90;;;20.17;63.17;98524.22;5139973;28;20637;-60
2022/07/10 05:22:15;;;;;;;4.53;2.97;;;19.20;99.90;;;20.99;60.79;98537.81;5137826;28;20646;-59
2022/07/10 05:24:48;;;;;;;3.50;2.58;;;19.90;99.90;;;21.11;58.63;98542.44;5135513;28;20784;-59
2022/07/10 05:27:22;;;;;;;3.50;2.67;;;20.00;99.90;;;21.14;57.32;98543.41;5135227;28;20283;-60
2022/07/10 05:29:55;;;;;;;3.10;2.80;;;19.90;99.40;;;20.84;57.20;98558.19;5139391;28;20202;-60
2022/07/10 05:32:28;;;;;;;5.10;2.70;;;19.50;99.30;;;20.53;58.17;98556.44;5139914;28;20212;-59
2022/07/10 05:35:02;;;;;;;2.58;2.22;;;19.20;99.80;;;20.05;59.73;98567.97;5140280;28;20208;-59
2022/07/10 05:37:35;;;;;;;3.15;2.40;;;18.80;99.90;;;19.76;59.94;98560.13;5141172;28;20259;-58
2022/07/10 05:40:10;;;;;;;2.80;2.33;;;18.50;99.90;;;19.41;61.18;98558.09;5135316;28;20617;-57
2022/07/10 05:42:44;;;;;;;4.03;2.80;;;18.20;99.90;;;19.27;60.94;98563.69;5134972;28;20204;-60
2022/07/10 05:45:18;;;;;;;3.40;2.80;;;18.10;99.90;;;19.05;60.85;98561.16;5140342;28;20212;-60
2022/07/10 05:47:51;;;;;;;3.65;2.40;;;17.90;99.90;;;19.01;61.68;98561.91;5141371;28;20212;-59
2022/07/10 05:50:24;;;;;;;2.60;2.40;;;18.00;99.90;;;19.10;60.42;98564.81;5139640;28;20227;-56
2022/07/10 05:52:58;;;;;;;5.50;2.80;;;18.00;99.90;;;19.31;60.88;98559.47;5138226;28;20248;-56
2022/07/10 05:55:31;;;;;;;3.50;2.72;;;18.30;99.90;;;19.71;59.18;98564.28;5139048;28;20664;-59
2022/07/10 05:58:05;;;;;;;2.83;2.55;;;18.70;99.90;;;19.86;58.74;98576.00;5137627;28;20669;-59
2022/07/10 06:00:38;;;;;;;3.67;2.45;;;18.80;99.50;;;20.30;58.83;98584.28;5139305;28;20278;-60
2022/07/10 06:03:12;;;;;;;2.45;2.25;;;19.10;99.80;;;20.64;57.28;98586.22;5137269;28;20200;-59
2022/07/10 06:05:45;;;;;;;3.88;2.20;;;19.40;98.70;;;20.82;55.37;98585.84;5136685;28;20258;-58
2022/07/10 06:08:18;;;;;;;4.10;2.28;;;19.50;98.00;;;20.89;55.07;98582.59;5141536;28;20235;-56
2022/07/10 06:10:51;;;;;;;3.03;2.00;;;19.40;98.00;;;20.84;55.41;98584.19;5137356;28;20220;-57
2022/07/10 06:13:26;;;;;;;3.67;2.28;;;19.40;98.00;;;20.67;55.50;98581.97;5138475;28;20727;-60
2022/07/10 06:15:59;;;;;;;2.20;2.00;;;19.30;97.90;;;20.82;55.31;98578.03;5139452;28;20199;-60
2022/07/10 06:18:32;;;;;;;3.00;2.00;;;19.40;98.10;;;20.61;55.24;98574.00;5140183;28;20209;-60
2022/07/10 06:21:06;;;;;;;3.60;2.00;;;19.30;97.30;;;20.56;55.61;98578.19;5137977;28;20274;-61
2022/07/10 06:23:39;;;;;;;3.72;2.22;;;19.20;97.30;;;20.36;56.61;98581.88;5135683;28;20258;-57
2022/07/10 06:26:12;;;;;;;3.45;2.10;;;19.00;98.40;;;20.14;56.28;98576.03;5136561;28;20727;-59
2022/07/10 06:28:47;;;;;;;2.65;2.20;;;18.90;97.80;;;20.18;56.18;98574.41;5139645;28;20216;-57
2022/07/10 06:31:20;;;;;;;2.75;2.00;;;18.80;97.60;;;20.05;56.75;98580.94;5135229;28;20231;-60
2022/07/10 06:33:53;;;;;;;3.78;2.30;;;18.80;98.60;;;20.08;56.86;98573.25;5135985;28;20224;-59
2022/07/10 06:36:26;;;;;;;3.50;2.08;;;18.80;98.10;;;20.12;56.78;98582.03;5141371;28;20200;-58
2022/07/10 06:39:05;;;;;;;3.20;2.20;;;18.90;97.90;;;20.01;56.12;98589.47;5134735;28;20226;-58
2022/07/10 06:41:39;;;;;;;2.90;2.20;;;18.90;97.40;;;19.77;54.98;98593.06;5139882;28;20244;-59
2022/07/10 06:44:14;;;;;;;2.83;2.28;;;18.80;96.40;;;20.32;56.47;98591.28;5136721;28;20203;-60
2022/07/10 06:47:55;;;;;;;3.97;2.10;;;19.20;97.60;;;21.24;53.62;98588.75;5135312;28;20203;-57
2022/07/10 06:49:40;;;;;;;1.92;1.80;;;20.10;96.10;;;21.80;52.20;98594.56;5139526;28;20274;-61
2022/07/10 06:52:13;;;;;;;3.08;2.10;;;20.50;94.80;;;21.51;51.95;98596.41;5135402;28;20270;-58
2022/07/10 06:54:47;;;;;;;3.08;2.13;;;20.10;94.80;;;21.08;53.07;98597.84;5142150;28;20219;-56
2022/07/10 06:57:20;;;;;;;3.20;2.30;;;19.60;95.50;;;20.75;53.04;98595.19;5133482;28;20619;-59
2022/07/10 06:59:55;;;;;;;3.58;2.42;;;19.40;95.70;;;20.49;54.32;98602.19;5135151;28;20644;-58
2022/07/10 07:02:28;;;;;;;3.05;2.17;;;19.10;96.50;;;20.29;55.79;98605.88;5137259;28;20246;-57
2022/07/10 07:05:02;;;;;;;4.53;2.58;;;19.00;97.40;;;20.11;55.62;98599.28;5136274;28;20209;-58
2022/07/10 07:07:35;;;;;;;3.33;2.35;;;18.90;97.00;;;20.04;56.22;98607.72;5138587;28;20624;-58
2022/07/10 07:10:10;;;;;;;3.10;2.17;;;18.80;97.90;;;19.83;56.13;98612.22;5132411;28;20279;-58
2022/07/10 07:12:43;;;;;;;2.70;2.28;;;18.60;97.20;;;19.90;56.11;98614.19;5136630;28;20202;-60
2022/07/10 07:15:20;;;;;;;2.75;2.38;;;18.60;97.30;;;19.79;56.54;98606.94;5136020;28;20205;-60
2022/07/10 07:18:11;;;;;;;4.07;2.38;;;18.50;97.60;;;19.56;56.45;98608.72;5134562;28;20605;-58
2022/07/10 07:23:35;;;;;;;2.45;2.20;;;18.30;97.80;;;19.48;57.17;98605.00;5132296;28;20329;-60
2022/07/10 07:26:08;;;;;;;4.15;2.17;;;18.30;97.90;;;19.36;57.55;98610.66;5139360;28;20267;-59
2022/07/10 07:28:41;;;;;;;2.55;2.28;;;18.20;98.10;;;19.13;58.66;98603.78;5132835;28;20205;-58
2022/07/10 07:31:17;;;;;;;3.30;2.40;;;18.10;98.30;;;19.21;58.20;98612.72;5134031;28;20278;-60
2022/07/10 07:33:51;;;;;;;3.70;2.13;;;18.20;98.30;;;19.13;58.66;98616.75;5136851;28;20634;-59
2022/07/10 07:36:24;;;;;;;3.47;2.13;;;18.10;98.30;;;19.26;57.51;98608.59;5131005;28;20266;-59
2022/07/10 07:38:57;;;;;;;4.60;2.40;;;18.20;97.60;;;19.26;56.54;98611.19;5133927;28;20199;-60
2022/07/10 07:41:30;;;;;;;5.15;2.50;;;18.30;96.90;;;19.19;56.77;98609.19;5132786;28;20236;-59
2022/07/10 07:44:04;;;;;;;3.28;2.35;;;18.20;97.60;;;19.26;57.76;98602.53;5134899;28;20619;-59
2022/07/10 07:46:38;;;;;;;4.00;2.40;;;18.20;97.90;;;19.20;56.73;98597.09;5133621;28;20640;-60
2022/07/10 07:49:12;;;;;;;2.97;2.42;;;18.30;96.80;;;19.42;56.07;98604.78;5128554;28;20244;-58
2022/07/10 07:51:45;;;;;;;3.50;2.40;;;18.40;96.70;;;19.62;55.85;98607.19;5126992;28;20283;-59
2022/07/10 07:54:18;;;;;;;3.03;2.30;;;18.70;96.20;;;19.71;55.99;98603.19;5134398;28;20215;-58
2022/07/10 07:56:51;;;;;;;4.93;2.28;;;18.80;96.60;;;19.92;55.53;98612.53;5134452;28;20203;-59
2022/07/10 07:59:24;;;;;;;3.28;2.15;;;18.90;96.30;;;19.96;55.54;98620.44;5133655;28;20197;-58
2022/07/10 08:01:59;;;;;;;2.53;2.25;;;18.90;96.20;;;20.02;55.35;98609.38;5134869;28;20644;-58
2022/07/10 08:04:32;;;;;;;3.67;2.30;;;18.90;96.40;;;20.16;55.25;98609.81;5129521;28;20207;-59
2022/07/10 08:07:05;;;;;;;2.95;2.42;;;19.00;96.30;;;20.12;54.98;98605.38;5133555;28;20246;-59
2022/07/10 08:09:39;;;;;;;3.22;2.22;;;19.00;96.00;;;19.99;55.41;98609.28;5138868;28;20231;-59
2022/07/10 08:12:12;;;;;;;4.03;2.05;;;18.90;96.30;;;20.08;54.37;98606.09;5136265;28;20993;-58
2022/07/10 08:14:45;;;;;;;2.88;2.45;;;19.00;95.60;;;20.70;53.08;98599.38;5136917;28;20251;-59
2022/07/10 08:17:21;;;;;;;3.00;2.08;;;19.60;94.60;;;21.01;51.13;98603.72;5136287;28;20776;-59
2022/07/10 08:19:54;;;;;;;2.53;2.10;;;19.90;93.70;;;21.44;50.37;98602.31;5138308;28;20200;-58
2022/07/10 08:22:27;;;;;;;4.20;2.40;;;20.20;93.50;;;21.48;50.33;98605.84;5132195;28;20232;-59
2022/07/10 08:25:01;;;;;;;3.00;2.22;;;20.30;93.00;;;21.34;49.65;98610.66;5142750;28;20255;-57
2022/07/10 08:27:34;;;;;;;3.38;2.20;;;20.10;92.60;;;21.12;50.90;98612.69;5139959;28;20204;-58
2022/07/10 08:30:10;;;;;;;2.92;2.28;;;19.90;93.50;;;21.03;50.98;98607.25;5136405;28;20267;-58
2022/07/10 08:32:44;;;;;;;3.00;2.42;;;19.70;93.60;;;21.15;50.60;98606.69;5130789;28;20731;-56
2022/07/10 08:35:17;;;;;;;3.38;2.35;;;20.00;93.20;;;21.46;51.68;98605.84;5135626;28;20211;-58
2022/07/10 08:37:50;;;;;;;2.40;2.03;;;20.50;93.50;;;22.10;49.24;98592.63;5132270;28;20259;-59
2022/07/10 08:40:24;;;;;;;3.17;2.15;;;21.10;92.10;;;22.75;47.07;98593.22;5137557;28;20875;-56
2022/07/10 08:42:57;;;;;;;2.13;1.90;;;21.90;90.40;;;22.99;46.99;98590.25;5137705;28;20208;-56
2022/07/10 08:45:34;;;;;;;2.75;1.90;;;22.30;90.20;;;23.07;45.68;98587.81;5130332;28;20201;-56
2022/07/10 08:48:13;;;;;;;2.80;1.67;;;22.20;88.40;;;22.95;46.13;98588.44;5136424;28;20634;-58
2022/07/10 08:50:49;;;;;;;3.10;2.00;;;21.80;90.00;;;22.79;46.19;98587.22;5138407;28;20278;-58
2022/07/10 08:53:30;;;;;;;2.97;2.17;;;21.50;90.20;;;22.60;45.90;98580.72;5141330;28;20203;-57
2022/07/10 08:56:04;;;;;;;3.10;2.30;;;21.10;90.10;;;21.97;47.12;98574.09;5135852;28;20555;-56
2022/07/10 08:58:38;;;;;;;2.65;2.03;;;20.60;90.70;;;21.85;48.93;98592.03;5140902;28;20752;-56
2022/07/10 09:01:12;;;;;;;2.47;2.08;;;20.70;91.80;;;22.10;47.92;98583.09;5144852;28;20298;-54
2022/07/10 09:03:47;;;;;;;3.95;2.17;;;21.20;90.70;;;22.35;47.18;98583.66;5133435;28;20205;-58
2022/07/10 09:06:20;;;;;;;3.85;2.20;;;21.60;90.00;;;22.53;45.85;98583.19;5142651;28;20200;-58
2022/07/10 09:09:05;;;;;;;3.70;2.00;;;21.60;88.50;;;22.24;45.07;98580.84;5131882;28;20196;-58
2022/07/10 09:11:42;;;;;;;4.18;2.17;;;21.00;88.00;;;21.99;46.39;98575.03;5142164;28;20699;-59
2022/07/10 09:14:17;;;;;;;2.08;1.88;;;20.90;90.00;;;22.11;45.14;98578.75;5137584;28;20203;-59
2022/07/10 09:17:05;;;;;;;2.03;1.70;;;21.00;87.60;;;22.04;45.45;98578.63;5138779;28;20204;-58
2022/07/10 09:19:40;;;;;;;3.78;2.03;;;21.10;87.50;;;21.79;45.93;98587.56;5141297;28;20203;-58
2022/07/10 09:22:15;;;;;;;2.25;2.05;;;20.80;88.20;;;21.87;46.08;98585.16;5138176;28;20643;-59
2022/07/10 09:24:48;;;;;;;2.30;2.10;;;20.80;87.00;;;22.08;45.09;98578.69;5128681;28;20199;-58
2022/07/10 09:27:21;;;;;;;1.65;1.50;;;21.00;87.30;;;22.30;43.44;98583.56;5135518;28;20204;-59
2022/07/10 09:29:56;;;;;;;2.30;2.00;;;21.20;83.90;;;22.10;44.13;98577.00;5142173;28;20223;-58
2022/07/10 09:32:29;;;;;;;2.70;2.03;;;21.20;84.90;;;22.39;43.94;98575.94;5137715;28;20629;-58
2022/07/10 09:37:57;;;;;;;4.22;2.58;;;22.20;81.80;;;22.88;41.68;98591.72;5138888;28;20208;-59
2022/07/10 09:40:30;;;;;;;3.55;2.17;;;21.90;82.10;;;22.84;42.67;98592.53;5130472;28;20764;-59
2022/07/10 09:43:03;;;;;;;3.05;1.95;;;21.70;83.80;;;22.65;43.20;98588.66;5140107;28;20208;-58
2022/07/10 09:45:38;;;;;;;3.22;2.00;;;21.50;84.20;;;22.38;43.97;98592.44;5141811;28;20201;-58
2022/07/10 09:48:12;;;;;;;2.25;2.05;;;21.10;85.50;;;22.00;44.22;98613.22;5134441;28;20683;-58
2022/07/10 09:50:46;;;;;;;4.32;2.20;;;20.80;86.10;;;21.71;44.78;98611.63;5134898;28;20223;-59
2022/07/10 09:53:20;;;;;;;2.58;1.92;;;20.50;86.80;;;21.80;45.72;98601.44;5137670;28;20576;-59
2022/07/10 09:55:53;;;;;;;4.50;2.03;;;20.80;88.10;;;22.16;46.39;98592.75;5137641;28;20247;-58
2022/07/10 09:58:30;;;;;;;2.90;2.22;;;21.40;88.00;;;22.75;44.59;98585.41;5130581;28;20294;-57
2022/07/10 10:01:04;;;;;;;2.50;2.30;;;22.00;85.40;;;22.61;44.10;98589.47;5140764;28;20219;-58
2022/07/10 10:03:39;;;;;;;3.00;2.35;;;22.00;83.90;;;22.84;42.83;98588.19;5135129;28;20635;-58
2022/07/10 10:06:17;;;;;;;3.75;2.95;;;21.80;83.20;;;22.77;43.16;98583.69;5142464;28;20246;-59
2022/07/10 10:08:58;;;;;;;4.78;2.53;;;21.50;84.70;;;22.33;44.07;98588.84;5139978;28;20215;-59
2022/07/10 10:11:35;;;;;;;3.45;2.15;;;21.20;85.20;;;22.19;44.81;98588.53;5133627;28;20232;-58
2022/07/10 10:14:09;;;;;;;2.65;2.10;;;21.10;86.40;;;22.30;44.80;98580.09;5139598;28;20247;-58
2022/07/10 10:16:46;;;;;;;4.20;2.13;;;21.30;85.90;;;22.51;45.23;98579.66;5137771;28;20208;-58
2022/07/10 10:22:19;;;;;;;3.55;2.10;;;21.60;83.90;;;22.69;42.54;98574.81;5136477;28;20799;-59
2022/07/10 10:24:53;;;;;;;2.38;1.83;;;21.50;82.80;;;22.51;43.14;98570.13;5139596;28;20204;-58
2022/07/10 10:27:26;;;;;;;2.97;2.00;;;21.40;83.80;;;22.58;43.85;98576.38;5136334;28;20726;-59
2022/07/10 10:30:01;;;;;;;2.85;2.30;;;21.30;85.40;;;22.26;43.66;98568.69;5135106;28;20212;-57
2022/07/10 10:32:41;;;;;;;2.30;2.13;;;21.10;84.50;;;22.40;43.08;98558.59;5137608;28;20203;-58
2022/07/10 10:35:46;;;;;;;3.15;1.95;;;21.30;83.40;;;22.40;43.25;98562.06;5134915;28;20573;-58
2022/07/10 10:38:22;;;;;;;2.45;1.98;;;21.40;84.00;;;22.72;43.37;98564.50;5136070;28;20199;-57
2022/07/10 10:40:55;;;;;;;3.10;2.08;;;21.80;83.80;;;22.66;42.35;98569.56;5131507;28;20282;-58
2022/07/10 10:43:28;;;;;;;2.47;1.63;;;21.90;81.50;;;22.34;43.20;98581.91;5133167;28;20204;-58
2022/07/10 10:46:24;;;;;;;1.90;1.70;;;21.40;83.30;;;22.34;41.71;98588.00;5139763;28;20196;-57
2022/07/10 10:49:07;;;;;;;2.33;1.80;;;21.20;81.70;;;22.33;41.97;98581.03;5130461;28;20222;-59
2022/07/10 10:52:10;;;;;;;2.35;1.88;;;21.00;82.90;;;22.23;43.09;98579.06;5138687;28;20287;-59
2022/07/10 10:55:08;;;;;;;1.90;1.70;;;21.00;83.90;;;22.43;42.32;98567.38;5091831;28;20204;-59
2022/07/10 10:57:47;;;;;;;1.80;1.70;;;21.30;82.10;;;22.44;42.00;98568.25;5137494;28;20232;-59
2022/07/10 11:00:40;;;;;;;3.63;1.70;;;21.50;81.10;;;22.60;40.19;98574.66;5136618;28;20279;-59
2022/07/10 11:03:16;;;;;;;2.17;1.70;;;21.70;78.30;;;22.81;40.09;98567.28;5136317;28;20204;-59